TimeEST,TemperatureF,Dew PointF,Humidity,Sea Level PressureIn,VisibilityMPH,Wind Direction,Wind SpeedMPH,Gust SpeedMPH,PrecipitationIn,Events,Conditions,WindDirDegrees,DateUTC
12:54 AM,44.1,39.0,82,29.99,1.5,North,18.4,27.6,0.01,,Overcast,10,2013-01-18 05:54:00
1:00 AM,44.6,39.2,81,30.02,10.0,North,16.1,27.6,N/A,,Overcast,350,2013-01-18 06:00:00
1:54 AM,43.0,37.9,82,30.09,10.0,North,18.4,28.8,0.00,Rain,Light Rain,350,2013-01-18 06:54:00
2:17 AM,42.8,37.4,81,30.11,10.0,North,21.9,27.6,0.00,Rain,Light Rain,360,2013-01-18 07:17:00
2:54 AM,41.0,37.0,86,30.11,10.0,North,16.1,29.9,0.00,,Overcast,360,2013-01-18 07:54:00
3:10 AM,39.2,35.6,87,30.12,10.0,North,16.1,-,N/A,,Overcast,350,2013-01-18 08:10:00
3:54 AM,39.9,36.0,86,30.18,10.0,North,17.3,26.5,N/A,,Overcast,350,2013-01-18 08:54:00
4:54 AM,39.9,35.1,83,30.20,10.0,North,20.7,27.6,N/A,,Mostly Cloudy,350,2013-01-18 09:54:00
5:54 AM,39.0,34.0,82,30.25,10.0,North,17.3,24.2,N/A,,Mostly Cloudy,360,2013-01-18 10:54:00
6:47 AM,39.2,33.8,81,30.30,10.0,North,13.8,-,N/A,,Scattered Clouds,350,2013-01-18 11:47:00
6:54 AM,37.9,33.1,83,30.29,10.0,North,12.7,-,N/A,,Scattered Clouds,350,2013-01-18 11:54:00
7:54 AM,39.0,34.0,82,30.33,10.0,NNW,10.4,-,N/A,,Clear,340,2013-01-18 12:54:00
8:54 AM,39.9,34.0,79,30.38,10.0,NNW,15.0,-,N/A,,Clear,340,2013-01-18 13:54:00
9:54 AM,42.1,32.0,67,30.43,10.0,North,12.7,-,N/A,,Partly Cloudy,360,2013-01-18 14:54:00
10:54 AM,44.1,32.0,63,30.44,10.0,North,13.8,-,N/A,,Clear,350,2013-01-18 15:54:00
11:54 AM,46.9,30.9,54,30.42,10.0,North,16.1,-,N/A,,Scattered Clouds,360,2013-01-18 16:54:00
12:54 PM,48.0,28.9,48,30.41,10.0,NNE,15.0,20.7,N/A,,Partly Cloudy,20,2013-01-18 17:54:00
1:54 PM,48.9,28.9,46,30.43,10.0,NNE,13.8,-,N/A,,Partly Cloudy,20,2013-01-18 18:54:00
2:54 PM,48.9,27.0,43,30.43,10.0,NNE,12.7,-,N/A,,Clear,20,2013-01-18 19:54:00
3:54 PM,48.0,25.0,41,30.45,10.0,NNE,16.1,-,N/A,,Clear,30,2013-01-18 20:54:00
4:54 PM,46.0,24.1,42,30.47,10.0,NE,13.8,-,N/A,,Clear,40,2013-01-18 21:54:00
5:54 PM,42.1,25.0,51,30.50,10.0,NE,5.8,-,N/A,,Partly Cloudy,50,2013-01-18 22:54:00
6:54 PM,41.0,26.1,55,30.53,10.0,NE,6.9,-,N/A,,Partly Cloudy,40,2013-01-18 23:54:00
7:54 PM,41.0,27.0,57,30.53,10.0,NE,8.1,-,N/A,,Partly Cloudy,50,2013-01-19 00:54:00
8:54 PM,39.0,25.0,57,30.53,10.0,NE,8.1,-,N/A,,Clear,40,2013-01-19 01:54:00
9:54 PM,39.9,28.0,63,30.53,10.0,ENE,8.1,-,N/A,,Clear,60,2013-01-19 02:54:00
10:54 PM,39.0,28.9,67,30.52,10.0,NE,5.8,-,N/A,,Clear,50,2013-01-19 03:54:00
11:54 PM,37.0,27.0,67,30.50,10.0,NE,8.1,-,N/A,,Clear,40,2013-01-19 04:54:00